createdAt,value
2023-12-01T00:00:34.028Z,24.25
2023-12-01T00:01:34.036Z,24.25
2023-12-01T00:02:34.183Z,24.27
2023-12-01T00:03:34.129Z,24.24
2023-12-01T00:04:34.193Z,24.26
2023-12-01T00:05:34.121Z,24.27
2023-12-01T00:06:34.170Z,24.24
2023-12-01T00:07:34.143Z,24.24
2023-12-01T00:08:34.201Z,24.25
2023-12-01T00:09:34.274Z,24.26
2023-12-01T00:10:34.245Z,24.28
2023-12-01T00:11:34.280Z,24.26
2023-12-01T00:12:34.330Z,24.25
2023-12-01T00:13:34.316Z,24.26
2023-12-01T00:14:34.358Z,24.26
2023-12-01T00:15:34.429Z,24.24
2023-12-01T00:16:34.378Z,24.24
2023-12-01T00:17:34.524Z,24.24
2023-12-01T00:18:34.500Z,24.22
2023-12-01T00:19:34.561Z,24.23
2023-12-01T00:20:34.555Z,24.24
2023-12-01T00:21:34.572Z,24.23
2023-12-01T00:22:34.641Z,24.23
2023-12-01T00:23:34.590Z,24.23
2023-12-01T00:24:34.621Z,24.22
2023-12-01T00:25:34.682Z,24.25
2023-12-01T00:26:34.623Z,24.24
2023-12-01T00:27:34.660Z,24.23
2023-12-01T00:28:34.661Z,24.25
2023-12-01T00:29:34.656Z,24.25
2023-12-01T00:30:35.624Z,24.24
2023-12-01T00:31:34.720Z,24.24
2023-12-01T00:32:34.829Z,24.24
2023-12-01T00:33:34.821Z,24.24
2023-12-01T00:34:34.813Z,24.24
2023-12-01T00:35:34.821Z,24.26
2023-12-01T00:36:34.828Z,24.27
2023-12-01T00:37:34.877Z,24.26
2023-12-01T00:38:34.880Z,24.26
2023-12-01T00:39:35.010Z,24.25
2023-12-01T00:40:34.952Z,24.25
2023-12-01T00:41:34.944Z,24.23
2023-12-01T00:42:35.065Z,24.24
2023-12-01T00:43:34.993Z,24.24
2023-12-01T00:44:35.036Z,24.23
2023-12-01T00:45:35.062Z,24.25
2023-12-01T00:46:35.032Z,24.24
2023-12-01T00:47:35.105Z,24.24
2023-12-01T00:48:35.223Z,24.23
2023-12-01T00:49:35.133Z,24.24
2023-12-01T00:50:35.165Z,24.23
2023-12-01T00:51:35.181Z,24.22
2023-12-01T00:52:35.176Z,24.24
2023-12-01T00:53:35.890Z,24.24
2023-12-01T00:54:35.235Z,24.22
2023-12-01T00:55:35.223Z,24.24
2023-12-01T00:56:35.261Z,24.23
2023-12-01T00:57:35.290Z,24.25
2023-12-01T00:58:35.258Z,24.25
2023-12-01T00:59:35.300Z,24.24
2023-12-01T01:00:35.357Z,24.25
2023-12-01T01:01:35.357Z,24.25
2023-12-01T01:02:35.368Z,24.22
2023-12-01T01:03:35.408Z,24.26
2023-12-01T01:04:35.458Z,24.24
2023-12-01T01:05:35.385Z,24.23
2023-12-01T01:06:35.436Z,24.22
2023-12-01T01:07:35.458Z,24.21
2023-12-01T01:08:35.495Z,24.24
2023-12-01T01:09:35.557Z,24.24
2023-12-01T01:10:35.569Z,24.25
2023-12-01T01:11:35.551Z,24.25
2023-12-01T01:12:35.675Z,24.24
2023-12-01T01:13:35.633Z,24.26
2023-12-01T01:14:35.634Z,24.23
2023-12-01T01:15:35.696Z,24.24
2023-12-01T01:16:35.861Z,24.24
2023-12-01T01:17:35.716Z,24.24
2023-12-01T01:18:35.743Z,24.24
2023-12-01T01:19:35.728Z,24.25
2023-12-01T01:20:35.727Z,24.23
2023-12-01T01:21:35.867Z,24.22
2023-12-01T01:22:35.799Z,24.24
2023-12-01T01:23:35.817Z,24.23
2023-12-01T01:24:35.828Z,24.25
2023-12-01T01:25:35.856Z,24.24
2023-12-01T01:26:35.862Z,24.25
2023-12-01T01:27:35.947Z,24.26
2023-12-01T01:28:35.903Z,24.26
2023-12-01T01:29:35.922Z,24.25
2023-12-01T01:30:35.982Z,24.25
2023-12-01T01:31:36.002Z,24.26
2023-12-01T01:32:36.060Z,24.23
2023-12-01T01:33:36.032Z,24.25
2023-12-01T01:34:36.023Z,24.24
2023-12-01T01:35:36.059Z,24.25
2023-12-01T01:36:36.072Z,24.26
2023-12-01T01:37:36.116Z,24.23
2023-12-01T01:38:36.132Z,24.22
2023-12-01T01:39:36.221Z,24.24
2023-12-01T01:40:37.473Z,24.24
2023-12-01T01:41:36.161Z,24.24
2023-12-01T01:42:36.224Z,24.23
2023-12-01T01:43:36.191Z,24.24
2023-12-01T01:44:36.214Z,24.26
2023-12-01T01:45:36.340Z,24.23
2023-12-01T01:46:36.348Z,24.23
2023-12-01T01:47:36.281Z,24.24
2023-12-01T01:48:36.379Z,24.27
2023-12-01T01:49:36.344Z,24.23
2023-12-01T01:50:36.333Z,24.25
2023-12-01T01:51:36.489Z,24.25
2023-12-01T01:52:36.366Z,24.25
2023-12-01T01:53:36.400Z,24.24
2023-12-01T01:54:36.439Z,24.23
2023-12-01T01:55:36.435Z,24.25
2023-12-01T01:56:36.453Z,24.23
2023-12-01T01:57:36.474Z,24.24
2023-12-01T01:58:36.467Z,24.26
2023-12-01T01:59:36.517Z,24.27
2023-12-01T02:00:36.594Z,24.26
2023-12-01T02:01:36.611Z,24.28
2023-12-01T02:02:36.723Z,24.28
2023-12-01T02:03:36.623Z,24.26
2023-12-01T02:04:36.601Z,24.27
2023-12-01T02:05:36.604Z,24.26
2023-12-01T02:06:36.675Z,24.27
2023-12-01T02:07:36.673Z,24.26
2023-12-01T02:08:36.758Z,24.29
2023-12-01T02:09:36.751Z,24.26
2023-12-01T02:10:36.721Z,24.28
2023-12-01T02:11:36.797Z,24.29
2023-12-01T02:12:36.887Z,24.30
2023-12-01T02:13:36.843Z,24.29
2023-12-01T02:14:36.848Z,24.30
2023-12-01T02:15:36.869Z,24.30
2023-12-01T02:16:36.898Z,24.30
2023-12-01T02:17:36.984Z,24.28
2023-12-01T02:18:37.009Z,24.30
2023-12-01T02:19:37.014Z,24.31
2023-12-01T02:20:37.021Z,24.29
2023-12-01T02:21:37.117Z,24.24
2023-12-01T02:22:37.114Z,24.24
2023-12-01T02:23:37.191Z,24.22
2023-12-01T02:24:37.233Z,24.18
2023-12-01T02:25:37.246Z,24.19
2023-12-01T02:26:37.267Z,24.20
2023-12-01T02:27:37.374Z,24.17
2023-12-01T02:28:37.325Z,24.19
2023-12-01T02:29:37.409Z,24.17
2023-12-01T02:30:37.472Z,24.12
2023-12-01T02:31:37.708Z,24.12
2023-12-01T02:32:37.566Z,24.10
2023-12-01T02:33:37.582Z,24.08
2023-12-01T02:34:37.645Z,24.08
2023-12-01T02:35:37.680Z,24.06
2023-12-01T02:36:37.819Z,24.06
2023-12-01T02:37:37.795Z,24.04
2023-12-01T02:38:37.821Z,24.00
2023-12-01T02:39:37.909Z,23.99
2023-12-01T02:40:37.888Z,23.99
2023-12-01T02:41:37.953Z,23.98
2023-12-01T02:42:38.059Z,23.96
2023-12-01T02:43:38.042Z,23.96
2023-12-01T02:44:38.121Z,23.92
2023-12-01T02:45:38.234Z,23.94
2023-12-01T02:46:38.329Z,23.92
2023-12-01T02:47:38.295Z,23.92
2023-12-01T02:48:38.371Z,23.88
2023-12-01T02:49:38.395Z,23.90
2023-12-01T02:50:38.393Z,23.87
2023-12-01T02:51:38.511Z,23.86
2023-12-01T02:52:38.507Z,23.85
2023-12-01T02:53:38.572Z,23.84
2023-12-01T02:54:38.652Z,23.82
2023-12-01T02:55:38.684Z,23.82
2023-12-01T02:56:38.719Z,23.81
2023-12-01T02:57:38.811Z,23.81
2023-12-01T02:58:38.821Z,23.81
2023-12-01T02:59:38.854Z,23.82
2023-12-01T03:00:38.932Z,23.81
2023-12-01T03:01:39.071Z,23.79
2023-12-01T03:02:39.072Z,23.79
2023-12-01T03:03:39.125Z,23.78
2023-12-01T03:04:39.118Z,23.77
2023-12-01T03:05:39.106Z,23.75
2023-12-01T03:06:39.195Z,23.76
2023-12-01T03:07:39.223Z,23.77
2023-12-01T03:08:39.281Z,23.76
2023-12-01T03:09:39.371Z,23.75
2023-12-01T03:10:39.382Z,23.74
2023-12-01T03:11:39.430Z,23.74
2023-12-01T03:12:39.596Z,23.73
2023-12-01T03:13:39.529Z,23.74
2023-12-01T03:14:39.632Z,23.73
2023-12-01T03:15:40.615Z,23.71
2023-12-01T03:16:39.637Z,23.74
2023-12-01T03:17:39.617Z,23.72
2023-12-01T03:18:39.703Z,23.72
2023-12-01T03:19:39.617Z,23.70
2023-12-01T03:20:39.625Z,23.70
2023-12-01T03:21:39.615Z,23.71
2023-12-01T03:22:39.683Z,23.71
2023-12-01T03:23:39.601Z,23.69
2023-12-01T03:24:39.624Z,23.71
2023-12-01T03:25:39.598Z,23.68
2023-12-01T03:26:39.650Z,23.68
2023-12-01T03:27:39.695Z,23.67
2023-12-01T03:28:39.739Z,23.69
2023-12-01T03:29:39.795Z,23.68
2023-12-01T03:30:39.866Z,23.65
2023-12-01T03:31:39.880Z,23.66
2023-12-01T03:32:39.895Z,23.65
2023-12-01T03:33:39.953Z,23.65
2023-12-01T03:34:39.968Z,23.64
2023-12-01T03:35:39.988Z,23.65
2023-12-01T03:36:40.108Z,23.65
2023-12-01T03:37:40.105Z,23.63
2023-12-01T03:38:40.143Z,23.64
2023-12-01T03:39:40.205Z,23.66
2023-12-01T03:40:40.206Z,23.63
2023-12-01T03:41:40.215Z,23.63
2023-12-01T03:42:40.313Z,23.64
2023-12-01T03:43:40.376Z,23.64
2023-12-01T03:44:40.311Z,23.63
2023-12-01T03:45:40.427Z,23.65
2023-12-01T03:46:40.475Z,23.63
2023-12-01T03:47:40.496Z,23.61
2023-12-01T03:48:40.531Z,23.63
2023-12-01T03:49:40.542Z,23.62
2023-12-01T03:50:40.606Z,23.60
2023-12-01T03:51:40.587Z,23.61
2023-12-01T03:52:40.598Z,23.60
2023-12-01T03:53:40.664Z,23.61
2023-12-01T03:54:40.690Z,23.60
2023-12-01T03:55:40.715Z,23.61
2023-12-01T03:56:40.735Z,23.60
2023-12-01T03:57:40.789Z,23.60
2023-12-01T03:58:40.795Z,23.60
2023-12-01T03:59:40.839Z,23.60
2023-12-01T04:00:40.896Z,23.60
2023-12-01T04:01:41.068Z,23.59
2023-12-01T04:02:41.065Z,23.60
2023-12-01T04:03:41.048Z,23.58
2023-12-01T04:04:41.126Z,23.59
2023-12-01T04:05:41.051Z,23.58
2023-12-01T04:06:41.064Z,23.58
2023-12-01T04:07:41.122Z,23.59
2023-12-01T04:08:41.137Z,23.58
2023-12-01T04:09:41.181Z,23.60
2023-12-01T04:10:41.170Z,23.58
2023-12-01T04:11:41.194Z,23.58
2023-12-01T04:12:41.254Z,23.58
2023-12-01T04:13:41.259Z,23.58
2023-12-01T04:14:41.284Z,23.56
2023-12-01T04:15:41.380Z,23.55
2023-12-01T04:16:41.408Z,23.55
2023-12-01T04:17:41.377Z,23.55
2023-12-01T04:18:41.426Z,23.56
2023-12-01T04:19:41.413Z,23.55
2023-12-01T04:20:41.440Z,23.58
2023-12-01T04:21:41.492Z,23.57
2023-12-01T04:22:41.554Z,23.54
2023-12-01T04:23:41.554Z,23.57
2023-12-01T04:24:41.583Z,23.56
2023-12-01T04:25:41.611Z,23.57
2023-12-01T04:26:41.616Z,23.55
2023-12-01T04:27:41.616Z,23.56
2023-12-01T04:28:41.642Z,23.53
2023-12-01T04:29:41.658Z,23.55
2023-12-01T04:30:41.765Z,23.53
2023-12-01T04:31:44.272Z,23.54
2023-12-01T04:32:42.814Z,23.55
2023-12-01T04:33:41.841Z,23.52
2023-12-01T04:34:41.729Z,23.54
2023-12-01T04:35:41.736Z,23.55
2023-12-01T04:36:41.749Z,23.53
2023-12-01T04:37:41.734Z,23.54
2023-12-01T04:38:41.738Z,23.53
2023-12-01T04:39:41.765Z,23.55
2023-12-01T04:40:41.743Z,23.53
2023-12-01T04:41:41.722Z,23.53
2023-12-01T04:42:41.782Z,23.54
2023-12-01T04:43:41.778Z,23.54
2023-12-01T04:44:41.756Z,23.55
2023-12-01T04:45:41.887Z,23.53
2023-12-01T04:46:41.784Z,23.53
2023-12-01T04:47:41.788Z,23.53
2023-12-01T04:48:41.789Z,23.53
2023-12-01T04:49:49.540Z,23.54
2023-12-01T04:50:49.590Z,23.56
2023-12-01T04:51:49.504Z,23.53
2023-12-01T04:52:49.550Z,23.55
2023-12-01T04:53:49.529Z,23.54
2023-12-01T04:54:49.545Z,23.55
2023-12-01T04:55:49.539Z,23.54
2023-12-01T04:56:49.536Z,23.54
2023-12-01T04:57:49.674Z,23.56
2023-12-01T04:58:49.554Z,23.55
2023-12-01T04:59:49.561Z,23.54
2023-12-01T05:00:49.589Z,23.53
2023-12-01T05:01:49.551Z,23.57
2023-12-01T05:02:49.600Z,23.54
2023-12-01T05:03:49.796Z,23.57
2023-12-01T05:04:49.656Z,23.56
2023-12-01T05:05:49.569Z,23.56
2023-12-01T05:06:49.539Z,23.56
2023-12-01T05:07:49.579Z,23.56
2023-12-01T05:08:49.545Z,23.59
2023-12-01T05:09:49.616Z,23.55
2023-12-01T05:10:49.593Z,23.56
2023-12-01T05:11:49.567Z,23.59
2023-12-01T05:12:49.616Z,23.57
2023-12-01T05:13:50.292Z,23.59
2023-12-01T05:14:49.581Z,23.59
2023-12-01T05:15:49.643Z,23.59
2023-12-01T05:16:49.600Z,23.60
2023-12-01T05:17:49.868Z,23.61
2023-12-01T05:18:49.627Z,23.62
2023-12-01T05:19:49.590Z,23.62
2023-12-01T05:20:49.772Z,23.63
2023-12-01T05:21:49.650Z,23.62
2023-12-01T05:22:49.602Z,23.62
2023-12-01T05:23:49.588Z,23.62
2023-12-01T05:24:49.668Z,23.64
2023-12-01T05:25:49.592Z,23.63
2023-12-01T05:26:52.286Z,23.63
2023-12-01T05:27:49.628Z,23.65
2023-12-01T05:28:49.618Z,23.66
2023-12-01T05:29:49.597Z,23.65
2023-12-01T05:30:49.706Z,23.65
2023-12-01T05:31:49.663Z,23.67
2023-12-01T05:32:49.756Z,23.67
2023-12-01T05:33:58.020Z,23.65
2023-12-01T05:34:50.617Z,23.68
2023-12-01T05:35:49.637Z,23.69
2023-12-01T05:36:49.632Z,23.67
2023-12-01T05:37:49.617Z,23.68
2023-12-01T05:38:49.621Z,23.68
2023-12-01T05:39:49.676Z,23.67
2023-12-01T05:40:49.646Z,23.69
2023-12-01T05:41:49.617Z,23.70
2023-12-01T05:42:49.649Z,23.71
2023-12-01T05:43:49.675Z,23.71
2023-12-01T05:44:49.678Z,23.71
2023-12-01T05:45:49.786Z,23.72
2023-12-01T05:46:49.709Z,23.71
2023-12-01T05:47:49.728Z,23.72
2023-12-01T05:48:49.733Z,23.73
2023-12-01T05:49:49.698Z,23.73
2023-12-01T05:50:49.762Z,23.72
2023-12-01T05:51:49.851Z,23.74
2023-12-01T05:52:49.896Z,23.73
2023-12-01T05:53:49.945Z,23.73
2023-12-01T05:54:49.962Z,23.74
2023-12-01T05:55:50.009Z,23.74
2023-12-01T05:56:50.060Z,23.74
2023-12-01T05:57:50.144Z,23.75
2023-12-01T05:58:50.148Z,23.73
2023-12-01T05:59:50.164Z,23.75
2023-12-01T06:01:12.811Z,23.73
2023-12-01T06:01:50.301Z,23.81
2023-12-01T06:02:50.370Z,23.78
2023-12-01T06:03:50.317Z,23.75
2023-12-01T06:04:50.281Z,23.78
2023-12-01T06:05:50.280Z,23.77
2023-12-01T06:06:50.291Z,23.78
2023-12-01T06:07:50.289Z,23.77
2023-12-01T06:08:50.226Z,23.78
2023-12-01T06:09:50.260Z,23.78
2023-12-01T06:10:50.257Z,23.77
2023-12-01T06:11:50.257Z,23.78
2023-12-01T06:12:50.292Z,23.78
2023-12-01T06:13:50.323Z,23.79
2023-12-01T06:14:50.272Z,23.79
2023-12-01T06:15:50.274Z,23.79
2023-12-01T06:16:50.308Z,23.81
2023-12-01T06:17:50.292Z,23.79
2023-12-01T06:18:50.302Z,23.79
2023-12-01T06:19:50.277Z,23.81
2023-12-01T06:20:50.286Z,23.81
2023-12-01T06:21:50.348Z,23.81
2023-12-01T06:22:50.323Z,23.81
2023-12-01T06:23:50.397Z,23.82
2023-12-01T06:24:50.525Z,23.82
2023-12-01T06:25:50.531Z,23.82
2023-12-01T06:26:50.543Z,23.83
2023-12-01T06:27:50.606Z,23.82
2023-12-01T06:28:50.642Z,23.83
2023-12-01T06:29:50.669Z,23.82
2023-12-01T06:30:50.727Z,23.83
2023-12-01T06:31:50.860Z,23.85
2023-12-01T06:32:50.831Z,23.86
2023-12-01T06:33:50.985Z,23.84
2023-12-01T06:34:50.947Z,23.86
2023-12-01T06:35:50.965Z,23.86
2023-12-01T06:36:51.030Z,24.05
2023-12-01T06:37:51.328Z,24.54
2023-12-01T06:38:51.088Z,24.75
2023-12-01T06:39:51.212Z,25.13
2023-12-01T06:40:51.189Z,25.57
2023-12-01T06:41:51.248Z,25.87
2023-12-01T06:42:53.705Z,26.77
2023-12-01T06:43:51.363Z,26.84
2023-12-01T06:44:51.385Z,26.84
2023-12-01T06:46:13.995Z,27.35
2023-12-01T06:46:51.465Z,27.49
2023-12-01T06:47:51.481Z,27.69
2023-12-01T06:48:51.456Z,27.54
2023-12-01T06:49:51.424Z,27.62
2023-12-01T06:50:51.412Z,27.88
2023-12-01T06:51:51.464Z,28.05
2023-12-01T06:52:51.429Z,28.23
2023-12-01T06:53:51.440Z,28.40
2023-12-01T06:54:51.434Z,28.48
2023-12-01T06:55:51.444Z,28.14
2023-12-01T06:56:51.425Z,28.60
2023-12-01T06:57:51.572Z,28.85
2023-12-01T06:58:51.448Z,29.20
2023-12-01T06:59:51.469Z,29.39
2023-12-01T07:00:51.458Z,30.24
2023-12-01T07:01:51.496Z,30.47
2023-12-01T07:02:52.431Z,30.26
2023-12-01T07:03:51.529Z,30.29
2023-12-01T07:04:51.454Z,29.59
2023-12-01T07:05:51.436Z,29.73
2023-12-01T07:06:52.296Z,29.66
2023-12-01T07:07:51.505Z,29.29
2023-12-01T07:08:51.785Z,29.42
2023-12-01T07:09:58.498Z,29.51
2023-12-01T07:10:52.622Z,29.47
2023-12-01T07:11:51.609Z,29.38
2023-12-01T07:12:51.661Z,29.37
2023-12-01T07:13:51.618Z,29.34
2023-12-01T07:14:51.621Z,29.09
2023-12-01T07:15:51.636Z,28.86
2023-12-01T07:16:51.623Z,29.05
2023-12-01T07:17:51.720Z,28.93
2023-12-01T07:18:51.670Z,28.96
2023-12-01T07:19:51.583Z,28.62
2023-12-01T07:20:51.648Z,28.16
2023-12-01T07:21:51.666Z,27.80
2023-12-01T07:22:51.614Z,27.16
2023-12-01T07:23:51.640Z,26.81
2023-12-01T07:24:51.665Z,26.64
2023-12-01T07:25:51.632Z,28.24
2023-12-01T07:26:51.698Z,28.26
2023-12-01T07:27:51.771Z,28.50
2023-12-01T07:28:52.347Z,28.62
2023-12-01T07:29:51.829Z,28.68
2023-12-01T07:30:51.915Z,28.79
2023-12-01T07:31:52.468Z,28.98
2023-12-01T07:32:52.078Z,29.13
2023-12-01T07:33:52.097Z,29.28
2023-12-01T07:34:52.144Z,29.38
2023-12-01T07:35:52.159Z,29.49
2023-12-01T07:36:52.200Z,29.70
2023-12-01T07:37:52.253Z,30.50
2023-12-01T07:38:52.292Z,30.32
2023-12-01T07:39:52.875Z,30.34
2023-12-01T07:40:52.329Z,30.46
2023-12-01T07:41:52.366Z,30.42
2023-12-01T07:42:52.478Z,30.15
2023-12-01T07:43:53.379Z,30.10
2023-12-01T07:44:52.332Z,29.89
2023-12-01T07:45:52.365Z,29.90
2023-12-01T07:46:52.444Z,29.89
2023-12-01T07:47:52.625Z,29.92
2023-12-01T07:48:52.630Z,29.35
2023-12-01T07:49:52.478Z,29.78
2023-12-01T07:50:52.480Z,29.81
2023-12-01T07:51:52.666Z,29.72
2023-12-01T07:52:52.588Z,29.71
2023-12-01T07:53:52.605Z,29.26
2023-12-01T07:54:52.634Z,29.05
2023-12-01T07:55:52.684Z,29.40
2023-12-01T07:56:52.693Z,29.40
2023-12-01T07:57:53.049Z,29.33
2023-12-01T07:58:53.298Z,29.45
2023-12-01T07:59:52.849Z,29.42
2023-12-01T08:00:52.922Z,26.90
2023-12-01T08:01:53.009Z,26.39
2023-12-01T08:02:53.562Z,25.72
2023-12-01T08:03:53.232Z,26.33
2023-12-01T08:04:53.058Z,26.65
2023-12-01T08:05:53.051Z,26.98
2023-12-01T08:06:53.131Z,26.73
2023-12-01T08:07:53.893Z,26.76
2023-12-01T08:08:53.300Z,26.48
2023-12-01T08:09:53.201Z,26.16
2023-12-01T08:10:53.189Z,26.34
2023-12-01T08:11:53.523Z,26.44
2023-12-01T08:12:53.196Z,26.18
2023-12-01T08:13:53.204Z,26.49
2023-12-01T08:14:53.230Z,26.79
2023-12-01T08:15:53.297Z,27.29
2023-12-01T08:16:53.281Z,27.33
2023-12-01T08:17:53.351Z,27.23
2023-12-01T08:18:53.241Z,27.31
2023-12-01T08:19:54.269Z,27.26
2023-12-01T08:20:53.207Z,27.97
2023-12-01T08:21:53.243Z,28.35
2023-12-01T08:22:53.377Z,28.50
2023-12-01T08:23:53.251Z,28.40
2023-12-01T08:24:53.226Z,28.54
2023-12-01T08:25:53.253Z,28.63
2023-12-01T08:26:53.445Z,28.71
2023-12-01T08:27:53.789Z,28.86
2023-12-01T08:28:53.216Z,29.18
2023-12-01T08:29:53.351Z,29.26
2023-12-01T08:30:53.370Z,29.20
2023-12-01T08:31:53.465Z,29.39
2023-12-01T08:32:53.487Z,29.28
2023-12-01T08:33:54.371Z,29.30
2023-12-01T08:34:53.467Z,29.22
2023-12-01T08:35:53.608Z,28.45
2023-12-01T08:36:53.586Z,29.03
2023-12-01T08:37:53.678Z,29.22
2023-12-01T08:38:53.772Z,29.37
2023-12-01T08:39:53.814Z,29.02
2023-12-01T08:40:55.162Z,29.25
2023-12-01T08:41:53.850Z,29.36
2023-12-01T08:42:54.244Z,29.33
2023-12-01T08:43:53.931Z,28.75
2023-12-01T08:44:54.061Z,29.05
2023-12-01T08:45:54.121Z,28.73
2023-12-01T08:46:54.098Z,28.34
2023-12-01T08:47:54.741Z,27.67
2023-12-01T08:48:54.236Z,27.36
2023-12-01T08:49:54.314Z,26.80
2023-12-01T08:50:54.379Z,27.21
2023-12-01T08:51:54.336Z,27.24
2023-12-01T08:52:54.337Z,27.32
2023-12-01T08:53:54.418Z,27.15
2023-12-01T08:54:54.476Z,27.15
2023-12-01T08:55:54.582Z,27.05
2023-12-01T08:56:54.476Z,27.01
2023-12-01T08:57:54.483Z,27.08
2023-12-01T08:58:54.530Z,27.12
2023-12-01T08:59:54.533Z,27.46
2023-12-01T09:00:54.576Z,27.45
2023-12-01T09:01:54.763Z,27.73
2023-12-01T09:02:54.976Z,27.83
2023-12-01T09:03:54.717Z,27.99
2023-12-01T09:04:54.587Z,27.91
2023-12-01T09:05:54.670Z,28.40
2023-12-01T09:06:54.690Z,28.35
2023-12-01T09:07:54.781Z,28.51
2023-12-01T09:08:54.816Z,28.50
2023-12-01T09:09:54.909Z,28.67
2023-12-01T09:10:54.880Z,28.85
2023-12-01T09:11:54.957Z,28.96
2023-12-01T09:12:54.984Z,28.77
2023-12-01T09:13:55.048Z,29.06
2023-12-01T09:14:55.175Z,29.13
2023-12-01T09:15:55.119Z,28.73
2023-12-01T09:16:55.110Z,29.13
2023-12-01T09:17:55.209Z,28.95
2023-12-01T09:18:55.298Z,29.07
2023-12-01T09:19:55.919Z,29.19
2023-12-01T09:20:55.296Z,29.49
2023-12-01T09:21:55.287Z,29.42
2023-12-01T09:22:55.345Z,29.51
2023-12-01T09:23:55.397Z,29.56
2023-12-01T09:24:55.591Z,29.47
2023-12-01T09:25:55.440Z,29.43
2023-12-01T09:26:55.567Z,29.41
2023-12-01T09:27:55.583Z,29.38
2023-12-01T09:28:55.692Z,29.46
2023-12-01T09:29:55.875Z,29.43
2023-12-01T09:30:55.756Z,29.12
2023-12-01T09:31:55.789Z,29.39
2023-12-01T09:32:55.908Z,29.09
2023-12-01T09:33:55.988Z,28.34
2023-12-01T09:34:56.414Z,28.07
2023-12-01T09:35:59.950Z,28.17
2023-12-01T09:36:55.967Z,28.23
2023-12-01T09:37:55.989Z,28.02
2023-12-01T09:38:56.038Z,28.17
2023-12-01T09:39:56.396Z,27.89
2023-12-01T09:40:56.029Z,28.23
2023-12-01T09:41:55.969Z,28.26
2023-12-01T09:42:56.016Z,28.35
2023-12-01T09:43:59.948Z,27.90
2023-12-01T09:44:57.418Z,28.11
2023-12-01T09:45:55.974Z,28.58
2023-12-01T09:46:55.979Z,28.57
2023-12-01T09:47:56.041Z,28.42
2023-12-01T09:48:56.085Z,28.74
2023-12-01T09:49:55.966Z,28.52
2023-12-01T09:50:56.143Z,28.50
2023-12-01T09:51:55.978Z,28.27
2023-12-01T09:52:56.081Z,28.28
2023-12-01T09:53:56.013Z,28.40
2023-12-01T09:55:07.510Z,28.41
2023-12-01T09:55:57.036Z,28.27
2023-12-01T09:56:55.987Z,28.31
2023-12-01T09:57:56.015Z,28.59
2023-12-01T09:58:56.010Z,28.67
2023-12-01T09:59:56.052Z,28.77
2023-12-01T10:00:56.027Z,28.79
2023-12-01T10:01:56.119Z,28.83
2023-12-01T10:02:56.186Z,28.92
2023-12-01T10:03:56.225Z,28.73
2023-12-01T10:04:56.066Z,28.77
2023-12-01T10:05:56.131Z,28.84
2023-12-01T10:06:56.118Z,28.70
2023-12-01T10:07:57.413Z,28.89
2023-12-01T10:08:56.256Z,28.87
2023-12-01T10:09:56.230Z,28.77
2023-12-01T10:10:56.338Z,28.80
2023-12-01T10:11:56.403Z,28.76
2023-12-01T10:12:56.437Z,28.62
2023-12-01T10:13:56.468Z,28.71
2023-12-01T10:14:56.560Z,28.54
2023-12-01T10:15:56.552Z,28.60
2023-12-01T10:16:56.606Z,28.71
2023-12-01T10:17:56.770Z,28.35
2023-12-01T10:18:56.771Z,28.60
2023-12-01T10:19:56.912Z,28.56
2023-12-01T10:20:56.846Z,28.62
2023-12-01T10:21:56.870Z,28.46
2023-12-01T10:22:56.921Z,28.49
2023-12-01T10:23:57.022Z,28.48
2023-12-01T10:24:57.025Z,28.50
2023-12-01T10:25:57.362Z,28.36
2023-12-01T10:26:57.136Z,28.55
2023-12-01T10:27:57.183Z,28.70
2023-12-01T10:28:57.255Z,28.72
2023-12-01T10:29:57.325Z,28.44
2023-12-01T10:30:57.345Z,28.67
2023-12-01T10:31:58.372Z,28.56
2023-12-01T10:32:57.361Z,28.48
2023-12-01T10:33:57.513Z,28.49
2023-12-01T10:34:57.334Z,28.31
2023-12-01T10:35:58.400Z,27.11
2023-12-01T10:36:57.333Z,27.01
2023-12-01T10:37:57.375Z,26.43
2023-12-01T10:38:57.437Z,26.73
2023-12-01T10:39:57.329Z,26.51
2023-12-01T10:40:57.342Z,27.52
2023-12-01T10:42:01.532Z,28.07
2023-12-01T10:42:58.401Z,27.93
2023-12-01T10:43:57.383Z,28.29
2023-12-01T10:44:57.376Z,28.27
2023-12-01T10:45:57.394Z,28.70
2023-12-01T10:46:57.375Z,28.50
2023-12-01T10:47:57.419Z,28.69
2023-12-01T10:48:57.422Z,28.63
2023-12-01T10:49:57.397Z,28.74
2023-12-01T10:50:57.444Z,28.78
2023-12-01T10:51:57.799Z,28.89
2023-12-01T10:52:57.388Z,28.99
2023-12-01T10:53:58.311Z,29.12
2023-12-01T10:54:57.435Z,29.23
2023-12-01T10:55:57.874Z,29.38
2023-12-01T10:56:57.460Z,29.42
2023-12-01T10:57:57.482Z,29.49
2023-12-01T10:58:57.554Z,29.66
2023-12-01T10:59:59.721Z,29.73
2023-12-01T11:00:58.413Z,29.87
2023-12-01T11:01:57.758Z,29.98
2023-12-01T11:02:57.853Z,30.07
2023-12-01T11:03:57.855Z,30.19
2023-12-01T11:04:57.771Z,30.29
2023-12-01T11:05:59.452Z,30.40
2023-12-01T11:06:59.416Z,30.50
2023-12-01T11:07:57.874Z,30.64
2023-12-01T11:08:57.964Z,30.73
2023-12-01T11:09:57.959Z,30.80
2023-12-01T11:10:58.398Z,30.86
2023-12-01T11:11:59.960Z,30.96
2023-12-01T11:12:58.024Z,31.07
2023-12-01T11:13:59.753Z,31.56
2023-12-01T11:14:58.114Z,31.87
2023-12-01T11:15:58.412Z,31.97
2023-12-01T11:16:58.157Z,31.87
2023-12-01T11:18:00.713Z,31.60
2023-12-01T11:18:58.181Z,31.76
2023-12-01T11:19:58.223Z,32.38
2023-12-01T11:20:58.164Z,32.33
2023-12-01T11:21:58.870Z,32.44
2023-12-01T11:22:58.228Z,32.60
2023-12-01T11:23:58.220Z,32.69
2023-12-01T11:24:58.163Z,32.72
2023-12-01T11:25:58.191Z,32.89
2023-12-01T11:26:58.187Z,32.99
2023-12-01T11:27:58.137Z,33.08
2023-12-01T11:28:58.204Z,33.23
2023-12-01T11:29:58.208Z,33.26
2023-12-01T11:30:58.399Z,33.20
2023-12-01T11:31:58.397Z,33.18
2023-12-01T11:32:58.327Z,33.36
2023-12-01T11:33:58.329Z,33.32
2023-12-01T11:34:58.428Z,33.42
2023-12-01T11:35:58.958Z,33.64
2023-12-01T11:36:58.972Z,33.61
2023-12-01T11:37:58.212Z,33.84
2023-12-01T11:38:58.302Z,34.18
2023-12-01T11:39:58.226Z,34.27
2023-12-01T11:40:58.393Z,34.31
2023-12-01T11:41:58.255Z,34.37
2023-12-01T11:43:06.321Z,34.31
2023-12-01T11:43:59.213Z,34.34
2023-12-01T11:44:58.269Z,34.44
2023-12-01T11:45:58.386Z,34.52
2023-12-01T11:46:59.853Z,34.56
2023-12-01T11:47:58.367Z,34.61
2023-12-01T11:48:58.409Z,34.61
2023-12-01T11:49:58.356Z,34.75
2023-12-01T11:50:58.305Z,34.79
2023-12-01T11:51:58.198Z,34.90
2023-12-01T11:52:58.246Z,34.97
2023-12-01T11:53:58.321Z,35.00
2023-12-01T11:54:58.255Z,35.00
2023-12-01T11:55:58.257Z,35.05
2023-12-01T11:56:58.224Z,35.11
2023-12-01T11:57:58.272Z,35.11
2023-12-01T11:58:58.273Z,35.05
2023-12-01T11:59:58.914Z,35.16
2023-12-01T12:00:58.257Z,35.23
2023-12-01T12:01:58.316Z,35.32
2023-12-01T12:02:58.342Z,35.37
2023-12-01T12:03:58.407Z,35.34
2023-12-01T12:04:58.318Z,35.43
2023-12-01T12:05:58.251Z,35.56
2023-12-01T12:06:58.274Z,35.59
2023-12-01T12:07:58.273Z,35.69
2023-12-01T12:08:58.280Z,35.83
2023-12-01T12:09:58.302Z,35.82
2023-12-01T12:10:58.275Z,35.84
2023-12-01T12:11:59.336Z,35.88
2023-12-01T12:12:58.316Z,35.90
2023-12-01T12:13:58.308Z,36.00
2023-12-01T12:14:58.306Z,36.02
2023-12-01T12:15:58.345Z,36.14
2023-12-01T12:16:58.297Z,36.18
2023-12-01T12:17:58.452Z,36.20
2023-12-01T12:18:58.397Z,36.23
2023-12-01T12:20:05.497Z,36.44
2023-12-01T12:20:59.283Z,36.70
2023-12-01T12:21:58.436Z,36.70
2023-12-01T12:22:58.410Z,36.79
2023-12-01T12:23:58.375Z,36.75
2023-12-01T12:24:58.311Z,36.24
2023-12-01T12:25:58.279Z,36.33
2023-12-01T12:26:58.401Z,35.36
2023-12-01T12:27:58.372Z,35.09
2023-12-01T12:28:59.177Z,34.66
2023-12-01T12:29:58.376Z,34.31
2023-12-01T12:30:58.337Z,34.13
2023-12-01T12:31:58.461Z,34.08
2023-12-01T12:32:58.449Z,33.52
2023-12-01T12:33:58.408Z,33.56
2023-12-01T12:34:58.389Z,33.46
2023-12-01T12:35:58.433Z,33.42
2023-12-01T12:36:58.456Z,33.34
2023-12-01T12:37:58.475Z,33.28
2023-12-01T12:38:58.489Z,33.20
2023-12-01T12:39:58.767Z,33.08
2023-12-01T12:40:59.254Z,33.05
2023-12-01T12:41:59.114Z,32.97
2023-12-01T12:42:58.594Z,32.89
2023-12-01T12:43:58.624Z,32.80
2023-12-01T12:44:58.586Z,32.77
2023-12-01T12:45:58.668Z,32.75
2023-12-01T12:46:58.637Z,32.70
2023-12-01T12:47:58.772Z,32.64
2023-12-01T12:48:58.665Z,32.66
2023-12-01T12:49:58.734Z,32.50
2023-12-01T12:50:58.816Z,32.49
2023-12-01T12:51:58.793Z,32.42
2023-12-01T12:52:58.887Z,32.41